Time,TemperatureF,DewpointF,PressureIn,WindDirection,WindDirectionDegrees,WindSpeedMPH,WindSpeedGustMPH,Humidity,HourlyPrecipIn,Conditions,Clouds,dailyrainin,SoftwareType,DateUTC
2013-10-15 00:02:00,51.3,50.2,29.64,SE,128,3.0,8.0,96,0.06,,,0.00,WeatherCatV1.21B27,2013-10-15 05:02:00,
2013-10-15 00:07:00,51.4,50.6,29.64,SE,143,1.0,4.0,97,0.04,,,0.00,WeatherCatV1.21B27,2013-10-15 05:07:00,
2013-10-15 00:12:00,51.4,50.6,29.63,SE,128,2.0,5.0,97,0.00,,,0.00,WeatherCatV1.21B27,2013-10-15 05:12:00,
2013-10-15 00:17:00,51.5,50.7,29.64,SE,128,0.0,1.0,97,0.00,,,0.00,WeatherCatV1.21B27,2013-10-15 05:17:00,
2013-10-15 00:22:00,51.5,50.7,29.63,SE,126,4.0,8.0,97,0.00,,,0.00,WeatherCatV1.21B27,2013-10-15 05:22:00,
2013-10-15 00:27:00,51.6,50.8,29.63,SE,127,3.0,3.0,97,0.00,,,0.01,WeatherCatV1.21B27,2013-10-15 05:27:00,
2013-10-15 00:32:00,51.6,50.8,29.63,SE,129,6.0,8.0,97,0.00,,,0.01,WeatherCatV1.21B27,2013-10-15 05:32:00,
2013-10-15 00:37:00,51.6,50.8,29.63,SE,124,4.0,4.0,97,0.00,,,0.01,WeatherCatV1.21B27,2013-10-15 05:37:00,
2013-10-15 00:42:00,51.7,50.9,29.63,ESE,120,1.0,2.0,97,0.00,,,0.01,WeatherCatV1.21B27,2013-10-15 05:42:00,
2013-10-15 00:48:00,51.7,50.9,29.63,ESE,121,0.0,2.0,97,0.00,,,0.01,WeatherCatV1.21B27,2013-10-15 05:48:00,
2013-10-15 00:53:00,51.7,50.9,29.62,ESE,121,1.0,5.0,97,0.00,,,0.01,WeatherCatV1.21B27,2013-10-15 05:53:00,
2013-10-15 00:58:00,51.7,50.9,29.62,ESE,121,1.0,2.0,97,0.00,,,0.01,WeatherCatV1.21B27,2013-10-15 05:58:00,
2013-10-15 01:03:00,51.8,51.2,29.62,SE,137,1.0,3.0,98,0.00,,,0.01,WeatherCatV1.21B27,2013-10-15 06:03:00,
2013-10-15 01:08:00,51.8,51.2,29.61,SE,137,1.0,3.0,98,0.00,,,0.01,WeatherCatV1.21B27,2013-10-15 06:08:00,
2013-10-15 01:13:00,51.9,51.3,29.61,SE,137,0.0,2.0,98,0.00,,,0.01,WeatherCatV1.21B27,2013-10-15 06:13:00,
2013-10-15 01:18:00,51.9,51.3,29.61,SE,128,5.0,5.0,98,0.00,,,0.01,WeatherCatV1.21B27,2013-10-15 06:18:00,
2013-10-15 01:23:00,52.0,51.5,29.61,SE,127,0.0,1.0,98,0.00,,,0.01,WeatherCatV1.21B27,2013-10-15 06:23:00,
2013-10-15 01:28:00,52.0,51.5,29.61,SE,127,1.0,5.0,98,0.00,,,0.01,WeatherCatV1.21B27,2013-10-15 06:28:00,
2013-10-15 01:33:00,52.1,51.5,29.61,SE,127,3.0,4.0,98,0.00,,,0.01,WeatherCatV1.21B27,2013-10-15 06:33:00,
2013-10-15 01:38:00,52.2,51.7,29.61,SE,127,2.0,2.0,98,0.00,,,0.01,WeatherCatV1.21B27,2013-10-15 06:38:00,
2013-10-15 01:43:00,52.2,51.7,29.61,SE,127,0.0,1.0,98,0.00,,,0.01,WeatherCatV1.21B27,2013-10-15 06:43:00,
2013-10-15 01:48:00,52.2,51.7,29.61,SE,127,0.0,2.0,98,0.00,,,0.01,WeatherCatV1.21B27,2013-10-15 06:48:00,
2013-10-15 01:53:00,52.3,51.8,29.61,SE,127,0.0,0.0,98,0.00,,,0.02,WeatherCatV1.21B27,2013-10-15 06:53:00,
2013-10-15 01:58:00,52.3,51.8,29.61,SE,127,0.0,1.0,98,0.00,,,0.02,WeatherCatV1.21B27,2013-10-15 06:58:00,
2013-10-15 02:03:00,52.3,51.8,29.61,SE,127,0.0,1.0,98,0.00,,,0.02,WeatherCatV1.21B27,2013-10-15 07:03:00,
2013-10-15 02:08:00,52.4,51.8,29.61,SE,127,0.0,3.0,98,0.00,,,0.02,WeatherCatV1.21B27,2013-10-15 07:08:00,
2013-10-15 02:13:00,52.4,51.8,29.61,SE,127,0.0,2.0,98,0.00,,,0.02,WeatherCatV1.21B27,2013-10-15 07:13:00,
2013-10-15 02:18:00,52.4,51.8,29.62,SSE,154,0.0,3.0,98,0.00,,,0.02,WeatherCatV1.21B27,2013-10-15 07:18:00,
2013-10-15 02:23:00,52.2,51.7,29.62,South,183,0.0,4.0,98,0.00,,,0.02,WeatherCatV1.21B27,2013-10-15 07:23:00,
2013-10-15 02:28:00,52.0,51.5,29.62,SSW,199,4.0,5.0,98,0.00,,,0.02,WeatherCatV1.21B27,2013-10-15 07:28:00,
2013-10-15 02:33:00,51.7,51.2,29.62,NNW,334,0.0,3.0,98,0.00,,,0.02,WeatherCatV1.21B27,2013-10-15 07:33:00,
2013-10-15 02:38:00,51.4,50.6,29.62,WNW,297,0.0,2.0,97,0.00,,,0.02,WeatherCatV1.21B27,2013-10-15 07:38:00,
2013-10-15 02:43:00,51.2,50.4,29.62,WNW,297,2.0,3.0,97,0.00,,,0.02,WeatherCatV1.21B27,2013-10-15 07:43:00,
2013-10-15 02:48:00,51.0,50.2,29.62,NW,314,0.0,3.0,97,0.00,,,0.02,WeatherCatV1.21B27,2013-10-15 07:48:00,
2013-10-15 02:53:00,50.9,50.1,29.62,NW,311,0.0,3.0,97,0.00,,,0.03,WeatherCatV1.21B27,2013-10-15 07:53:00,
2013-10-15 02:58:00,50.7,49.9,29.62,South,191,2.0,4.0,97,0.00,,,0.03,WeatherCatV1.21B27,2013-10-15 07:58:00,
2013-10-15 03:03:00,50.4,49.6,29.62,WNW,299,3.0,5.0,97,0.00,,,0.03,WeatherCatV1.21B27,2013-10-15 08:03:00,
2013-10-15 03:08:00,50.2,49.4,29.62,WNW,284,1.0,5.0,97,0.00,,,0.03,WeatherCatV1.21B27,2013-10-15 08:08:00,
2013-10-15 03:13:00,50.1,49.3,29.62,WNW,288,1.0,5.0,97,0.00,,,0.03,WeatherCatV1.21B27,2013-10-15 08:13:00,
2013-10-15 03:18:00,49.9,49.1,29.62,WNW,284,0.0,10.0,97,0.00,,,0.03,WeatherCatV1.21B27,2013-10-15 08:18:00,
2013-10-15 03:23:00,49.7,48.9,29.62,WNW,300,2.0,5.0,97,0.00,,,0.03,WeatherCatV1.21B27,2013-10-15 08:23:00,
2013-10-15 03:28:00,49.6,48.8,29.62,WNW,301,1.0,7.0,97,0.00,,,0.03,WeatherCatV1.21B27,2013-10-15 08:28:00,
2013-10-15 03:33:00,49.4,48.6,29.62,SSW,203,6.0,8.0,97,0.00,,,0.03,WeatherCatV1.21B27,2013-10-15 08:33:00,
2013-10-15 03:38:00,49.3,48.5,29.62,NW,311,1.0,6.0,97,0.00,,,0.03,WeatherCatV1.21B27,2013-10-15 08:38:00,
2013-10-15 03:43:00,49.2,48.4,29.63,WNW,301,1.0,8.0,97,0.00,,,0.03,WeatherCatV1.21B27,2013-10-15 08:43:00,
2013-10-15 03:48:00,49.1,48.3,29.63,WNW,293,0.0,5.0,97,0.00,,,0.03,WeatherCatV1.21B27,2013-10-15 08:48:00,
2013-10-15 03:50:00,49.0,48.2,29.63,WNW,299,0.0,5.0,97,0.00,,,0.03,WeatherCatV1.21B27,2013-10-15 08:50:00,
2013-10-15 03:55:00,48.9,48.1,29.63,WSW,256,2.0,5.0,97,0.00,,,0.03,WeatherCatV1.21B27,2013-10-15 08:55:00,
2013-10-15 04:00:00,48.8,48.0,29.63,WNW,301,0.0,6.0,97,0.00,,,0.03,WeatherCatV1.21B27,2013-10-15 09:00:00,
2013-10-15 04:05:00,48.7,47.9,29.63,WNW,297,0.0,5.0,97,0.00,,,0.03,WeatherCatV1.21B27,2013-10-15 09:05:00,
2013-10-15 04:10:00,48.7,47.9,29.63,ESE,118,3.0,6.0,97,0.00,,,0.03,WeatherCatV1.21B27,2013-10-15 09:10:00,
2013-10-15 04:15:00,48.6,47.8,29.63,WNW,301,0.0,3.0,97,0.00,,,0.03,WeatherCatV1.21B27,2013-10-15 09:15:00,
2013-10-15 04:20:00,48.6,47.8,29.63,East,86,0.0,2.0,97,0.00,,,0.03,WeatherCatV1.21B27,2013-10-15 09:20:00,
2013-10-15 04:25:00,48.5,47.7,29.63,WNW,301,0.0,9.0,97,0.00,,,0.03,WeatherCatV1.21B27,2013-10-15 09:25:00,
2013-10-15 04:30:00,48.4,47.6,29.63,NW,304,2.0,12.0,97,0.00,,,0.03,WeatherCatV1.21B27,2013-10-15 09:30:00,
2013-10-15 04:35:00,48.2,47.4,29.64,WNW,287,1.0,4.0,97,0.00,,,0.03,WeatherCatV1.21B27,2013-10-15 09:35:00,
2013-10-15 04:40:00,48.1,47.3,29.64,NNW,328,0.0,6.0,97,0.00,,,0.03,WeatherCatV1.21B27,2013-10-15 09:40:00,
2013-10-15 04:45:00,48.0,46.9,29.64,South,169,2.0,8.0,96,0.00,,,0.03,WeatherCatV1.21B27,2013-10-15 09:45:00,
2013-10-15 04:50:00,47.8,47.0,29.64,NW,304,2.0,10.0,97,0.00,,,0.03,WeatherCatV1.21B27,2013-10-15 09:50:00,
2013-10-15 04:55:00,47.8,47.0,29.65,NNW,332,0.0,4.0,97,0.00,,,0.03,WeatherCatV1.21B27,2013-10-15 09:55:00,
2013-10-15 05:00:00,47.6,46.8,29.65,NW,325,2.0,12.0,97,0.00,,,0.03,WeatherCatV1.21B27,2013-10-15 10:00:00,
2013-10-15 05:05:00,47.5,46.7,29.65,SSW,205,7.0,7.0,97,0.00,,,0.03,WeatherCatV1.21B27,2013-10-15 10:05:00,
2013-10-15 05:10:00,47.4,46.6,29.65,West,278,2.0,3.0,97,0.00,,,0.03,WeatherCatV1.21B27,2013-10-15 10:10:00,
2013-10-15 05:15:00,47.3,46.2,29.65,SSW,204,1.0,3.0,96,0.00,,,0.03,WeatherCatV1.21B27,2013-10-15 10:15:00,
2013-10-15 05:20:00,47.3,46.2,29.65,WNW,284,0.0,7.0,96,0.00,,,0.03,WeatherCatV1.21B27,2013-10-15 10:20:00,
2013-10-15 05:25:00,47.3,46.5,29.65,SE,139,3.0,5.0,97,0.00,,,0.03,WeatherCatV1.21B27,2013-10-15 10:25:00,
2013-10-15 05:30:00,47.2,46.4,29.65,NW,316,0.0,7.0,97,0.00,,,0.03,WeatherCatV1.21B27,2013-10-15 10:30:00,
2013-10-15 05:35:00,47.1,46.3,29.65,SSE,150,1.0,3.0,97,0.00,,,0.03,WeatherCatV1.21B27,2013-10-15 10:35:00,
2013-10-15 05:40:00,47.1,46.3,29.65,South,180,1.0,1.0,97,0.00,,,0.03,WeatherCatV1.21B27,2013-10-15 10:40:00,
2013-10-15 05:45:00,47.0,46.2,29.65,West,274,1.0,4.0,97,0.00,,,0.03,WeatherCatV1.21B27,2013-10-15 10:45:00,
2013-10-15 05:50:00,46.9,46.1,29.65,SSW,213,0.0,4.0,97,0.00,,,0.03,WeatherCatV1.21B27,2013-10-15 10:50:00,
2013-10-15 05:55:00,46.9,46.1,29.65,WNW,282,1.0,3.0,97,0.00,,,0.03,WeatherCatV1.21B27,2013-10-15 10:55:00,
2013-10-15 06:00:00,46.8,46.0,29.65,WNW,293,0.0,8.0,97,0.00,,,0.03,WeatherCatV1.21B27,2013-10-15 11:00:00,
2013-10-15 06:05:00,46.7,45.9,29.65,WNW,289,0.0,7.0,97,0.00,,,0.03,WeatherCatV1.21B27,2013-10-15 11:05:00,
2013-10-15 06:10:00,46.7,45.9,29.66,WNW,301,2.0,6.0,97,0.00,,,0.03,WeatherCatV1.21B27,2013-10-15 11:10:00,
2013-10-15 06:15:00,46.7,45.9,29.66,WNW,303,0.0,2.0,97,0.00,,,0.03,WeatherCatV1.21B27,2013-10-15 11:15:00,
2013-10-15 06:20:00,46.6,45.8,29.66,WNW,297,2.0,5.0,97,0.00,,,0.04,WeatherCatV1.21B27,2013-10-15 11:20:00,
2013-10-15 06:25:00,46.6,45.8,29.66,WNW,288,2.0,5.0,97,0.00,,,0.04,WeatherCatV1.21B27,2013-10-15 11:25:00,
2013-10-15 06:30:00,46.6,45.8,29.66,WNW,293,0.0,3.0,97,0.00,,,0.04,WeatherCatV1.21B27,2013-10-15 11:30:00,
2013-10-15 06:35:00,46.5,45.7,29.66,SW,236,0.0,4.0,97,0.00,,,0.04,WeatherCatV1.21B27,2013-10-15 11:35:00,
2013-10-15 06:40:00,46.5,45.7,29.66,WNW,303,1.0,7.0,97,0.00,,,0.04,WeatherCatV1.21B27,2013-10-15 11:40:00,
2013-10-15 06:45:00,46.5,45.7,29.66,WSW,257,3.0,5.0,97,0.00,,,0.04,WeatherCatV1.21B27,2013-10-15 11:45:00,
2013-10-15 06:50:00,46.5,45.7,29.66,WNW,303,3.0,5.0,97,0.00,,,0.04,WeatherCatV1.21B27,2013-10-15 11:50:00,
2013-10-15 06:55:00,46.5,45.7,29.66,WNW,283,0.0,7.0,97,0.00,,,0.04,WeatherCatV1.21B27,2013-10-15 11:55:00,
2013-10-15 07:00:00,46.5,45.7,29.66,WNW,293,3.0,4.0,97,0.00,,,0.04,WeatherCatV1.21B27,2013-10-15 12:00:00,
2013-10-15 07:05:00,46.5,45.7,29.66,West,274,4.0,5.0,97,0.00,,,0.04,WeatherCatV1.21B27,2013-10-15 12:05:00,
2013-10-15 07:10:00,46.5,45.7,29.66,West,264,0.0,4.0,97,0.00,,,0.04,WeatherCatV1.21B27,2013-10-15 12:10:00,
2013-10-15 07:15:00,46.5,45.7,29.66,WNW,303,0.0,5.0,97,0.00,,,0.04,WeatherCatV1.21B27,2013-10-15 12:15:00,
2013-10-15 07:20:00,46.5,45.7,29.66,NW,304,2.0,5.0,97,0.00,,,0.04,WeatherCatV1.21B27,2013-10-15 12:20:00,
2013-10-15 07:25:00,46.5,45.7,29.66,West,264,5.0,5.0,97,0.00,,,0.04,WeatherCatV1.21B27,2013-10-15 12:25:00,
2013-10-15 07:30:00,46.6,45.8,29.66,NW,315,3.0,7.0,97,0.00,,,0.04,WeatherCatV1.21B27,2013-10-15 12:30:00,
2013-10-15 07:35:00,46.6,45.8,29.66,WNW,295,3.0,3.0,97,0.00,,,0.04,WeatherCatV1.21B27,2013-10-15 12:35:00,
2013-10-15 07:40:00,46.7,45.9,29.67,NNW,334,5.0,10.0,97,0.00,,,0.04,WeatherCatV1.21B27,2013-10-15 12:40:00,
2013-10-15 07:45:00,46.7,45.9,29.67,NW,314,1.0,9.0,97,0.00,,,0.04,WeatherCatV1.21B27,2013-10-15 12:45:00,
2013-10-15 07:50:00,46.7,45.9,29.67,WNW,294,4.0,5.0,97,0.00,,,0.04,WeatherCatV1.21B27,2013-10-15 12:50:00,
2013-10-15 07:55:00,46.7,45.9,29.67,NW,311,8.0,8.0,97,0.00,,,0.04,WeatherCatV1.21B27,2013-10-15 12:55:00,
2013-10-15 08:00:00,46.6,45.8,29.67,WNW,295,1.0,6.0,97,0.00,,,0.04,WeatherCatV1.21B27,2013-10-15 13:00:00,
2013-10-15 08:05:00,46.6,45.8,29.67,NW,318,4.0,8.0,97,0.00,,,0.04,WeatherCatV1.21B27,2013-10-15 13:05:00,
2013-10-15 08:10:00,46.4,45.6,29.68,NW,306,3.0,9.0,97,0.00,,,0.04,WeatherCatV1.21B27,2013-10-15 13:10:00,
2013-10-15 08:15:00,46.3,45.5,29.68,NW,316,1.0,5.0,97,0.00,,,0.04,WeatherCatV1.21B27,2013-10-15 13:15:00,
2013-10-15 08:20:00,46.3,45.8,29.68,NW,305,1.0,10.0,98,0.00,,,0.04,WeatherCatV1.21B27,2013-10-15 13:20:00,
2013-10-15 08:25:00,46.2,45.7,29.68,WNW,296,5.0,5.0,98,0.00,,,0.04,WeatherCatV1.21B27,2013-10-15 13:25:00,
2013-10-15 08:30:00,46.2,45.4,29.69,WNW,293,1.0,5.0,97,0.00,,,0.04,WeatherCatV1.21B27,2013-10-15 13:30:00,
2013-10-15 08:35:00,46.1,45.6,29.69,NW,310,1.0,2.0,98,0.00,,,0.04,WeatherCatV1.21B27,2013-10-15 13:35:00,
2013-10-15 08:40:00,46.1,45.6,29.69,NW,304,2.0,4.0,98,0.00,,,0.04,WeatherCatV1.21B27,2013-10-15 13:40:00,
2013-10-15 08:45:00,46.1,45.6,29.69,WNW,282,3.0,8.0,98,0.00,,,0.04,WeatherCatV1.21B27,2013-10-15 13:45:00,
2013-10-15 08:50:00,46.1,45.6,29.69,West,275,0.0,3.0,98,0.00,,,0.04,WeatherCatV1.21B27,2013-10-15 13:50:00,
2013-10-15 08:55:00,46.1,45.6,29.69,WNW,289,0.0,5.0,98,0.00,,,0.04,WeatherCatV1.21B27,2013-10-15 13:55:00,
2013-10-15 09:00:00,46.1,45.6,29.70,WNW,289,2.0,6.0,98,0.00,,,0.04,WeatherCatV1.21B27,2013-10-15 14:00:00,
2013-10-15 09:05:00,46.1,45.6,29.70,NW,307,3.0,6.0,98,0.00,,,0.04,WeatherCatV1.21B27,2013-10-15 14:05:00,
2013-10-15 09:10:00,46.1,45.6,29.70,NW,306,1.0,10.0,98,0.00,,,0.04,WeatherCatV1.21B27,2013-10-15 14:10:00,
2013-10-15 09:15:00,46.1,45.6,29.70,WNW,286,2.0,4.0,98,0.00,,,0.04,WeatherCatV1.21B27,2013-10-15 14:15:00,
2013-10-15 09:20:00,46.2,45.7,29.70,WNW,303,4.0,6.0,98,0.00,,,0.04,WeatherCatV1.21B27,2013-10-15 14:20:00,
2013-10-15 09:25:00,46.2,45.7,29.70,WNW,293,0.0,3.0,98,0.00,,,0.04,WeatherCatV1.21B27,2013-10-15 14:25:00,
2013-10-15 09:30:00,46.3,45.8,29.70,WNW,283,1.0,6.0,98,0.00,,,0.04,WeatherCatV1.21B27,2013-10-15 14:30:00,
2013-10-15 09:35:00,46.4,45.9,29.71,West,277,7.0,7.0,98,0.00,,,0.04,WeatherCatV1.21B27,2013-10-15 14:35:00,
2013-10-15 09:40:00,46.5,46.0,29.71,NNW,328,2.0,8.0,98,0.00,,,0.04,WeatherCatV1.21B27,2013-10-15 14:40:00,
2013-10-15 09:45:00,46.6,46.1,29.71,North,353,4.0,4.0,98,0.00,,,0.04,WeatherCatV1.21B27,2013-10-15 14:45:00,
2013-10-15 09:50:00,46.7,46.2,29.71,WNW,289,1.0,6.0,98,0.00,,,0.04,WeatherCatV1.21B27,2013-10-15 14:50:00,
2013-10-15 09:55:00,46.9,46.4,29.71,NW,326,3.0,4.0,98,0.00,,,0.04,WeatherCatV1.21B27,2013-10-15 14:55:00,
2013-10-15 10:00:00,47.0,46.5,29.71,NW,317,2.0,9.0,98,0.00,,,0.04,WeatherCatV1.21B27,2013-10-15 15:00:00,
2013-10-15 10:05:00,47.2,46.7,29.72,West,278,1.0,5.0,98,0.00,,,0.04,WeatherCatV1.21B27,2013-10-15 15:05:00,
2013-10-15 10:10:00,47.3,46.8,29.72,WNW,290,8.0,8.0,98,0.00,,,0.04,WeatherCatV1.21B27,2013-10-15 15:10:00,
2013-10-15 10:15:00,47.5,47.0,29.72,West,275,5.0,6.0,98,0.00,,,0.04,WeatherCatV1.21B27,2013-10-15 15:15:00,
2013-10-15 10:20:00,47.6,46.8,29.72,West,272,2.0,9.0,97,0.00,,,0.04,WeatherCatV1.21B27,2013-10-15 15:20:00,
2013-10-15 10:25:00,47.7,46.9,29.73,SSW,201,2.0,6.0,97,0.00,,,0.04,WeatherCatV1.21B27,2013-10-15 15:25:00,
2013-10-15 10:30:00,47.7,46.9,29.73,WNW,296,4.0,8.0,97,0.00,,,0.04,WeatherCatV1.21B27,2013-10-15 15:30:00,
2013-10-15 10:35:00,47.7,46.9,29.73,NW,321,5.0,9.0,97,0.00,,,0.04,WeatherCatV1.21B27,2013-10-15 15:35:00,
2013-10-15 10:40:00,47.8,46.7,29.73,West,279,7.0,7.0,96,0.00,,,0.04,WeatherCatV1.21B27,2013-10-15 15:40:00,
2013-10-15 10:45:00,47.9,46.8,29.74,NW,325,2.0,5.0,96,0.00,,,0.04,WeatherCatV1.21B27,2013-10-15 15:45:00,
2013-10-15 10:50:00,47.8,46.4,29.74,WNW,295,3.0,10.0,95,0.00,,,0.04,WeatherCatV1.21B27,2013-10-15 15:50:00,
2013-10-15 10:55:00,47.7,46.3,29.75,NW,304,2.0,6.0,95,0.00,,,0.04,WeatherCatV1.21B27,2013-10-15 15:55:00,
2013-10-15 11:00:00,47.6,46.2,29.75,WNW,286,4.0,9.0,95,0.00,,,0.04,WeatherCatV1.21B27,2013-10-15 16:00:00,
2013-10-15 11:05:00,47.5,46.1,29.75,NNW,339,3.0,6.0,95,0.00,,,0.04,WeatherCatV1.21B27,2013-10-15 16:05:00,
2013-10-15 11:10:00,47.4,46.3,29.76,NW,310,6.0,8.0,96,0.00,,,0.04,WeatherCatV1.21B27,2013-10-15 16:10:00,
2013-10-15 11:15:00,47.3,46.2,29.76,WNW,286,3.0,9.0,96,0.00,,,0.04,WeatherCatV1.21B27,2013-10-15 16:15:00,
2013-10-15 11:20:00,47.2,46.1,29.76,NW,310,3.0,7.0,96,0.00,,,0.04,WeatherCatV1.21B27,2013-10-15 16:20:00,
2013-10-15 11:25:00,47.2,46.1,29.77,WNW,303,4.0,9.0,96,0.00,,,0.04,WeatherCatV1.21B27,2013-10-15 16:25:00,
2013-10-15 11:30:00,47.2,46.1,29.77,WNW,295,3.0,4.0,96,0.00,,,0.04,WeatherCatV1.21B27,2013-10-15 16:30:00,
2013-10-15 11:35:00,47.3,45.9,29.77,NW,315,3.0,4.0,95,0.00,,,0.04,WeatherCatV1.21B27,2013-10-15 16:35:00,
2013-10-15 11:40:00,47.3,45.7,29.77,NW,319,6.0,10.0,94,0.00,,,0.04,WeatherCatV1.21B27,2013-10-15 16:40:00,
2013-10-15 11:45:00,47.4,46.0,29.77,WSW,258,2.0,4.0,95,0.00,,,0.04,WeatherCatV1.21B27,2013-10-15 16:45:00,
2013-10-15 11:50:00,47.4,46.0,29.77,NW,326,3.0,7.0,95,0.00,,,0.04,WeatherCatV1.21B27,2013-10-15 16:50:00,
2013-10-15 11:55:00,47.4,45.8,29.77,West,275,7.0,11.0,94,0.00,,,0.04,WeatherCatV1.21B27,2013-10-15 16:55:00,
2013-10-15 12:00:00,47.4,45.8,29.78,West,264,6.0,8.0,94,0.00,,,0.04,WeatherCatV1.21B27,2013-10-15 17:00:00,
2013-10-15 12:05:00,47.4,45.8,29.79,NNW,328,3.0,7.0,94,0.00,,,0.04,WeatherCatV1.21B27,2013-10-15 17:05:00,
2013-10-15 12:10:00,47.3,45.7,29.79,NNW,328,2.0,6.0,94,0.00,,,0.04,WeatherCatV1.21B27,2013-10-15 17:10:00,
2013-10-15 12:15:00,47.3,45.9,29.79,NW,315,4.0,4.0,95,0.00,,,0.04,WeatherCatV1.21B27,2013-10-15 17:15:00,
2013-10-15 12:20:00,47.2,45.8,29.79,WSW,255,7.0,7.0,95,0.00,,,0.05,WeatherCatV1.21B27,2013-10-15 17:20:00,
2013-10-15 12:25:00,47.1,45.7,29.80,NW,324,8.0,9.0,95,0.00,,,0.05,WeatherCatV1.21B27,2013-10-15 17:25:00,
2013-10-15 12:30:00,47.0,45.6,29.80,WNW,300,5.0,7.0,95,0.00,,,0.05,WeatherCatV1.21B27,2013-10-15 17:30:00,
2013-10-15 12:35:00,47.0,45.4,29.80,NW,320,4.0,8.0,94,0.00,,,0.05,WeatherCatV1.21B27,2013-10-15 17:35:00,
2013-10-15 12:40:00,46.9,45.3,29.80,NW,325,3.0,8.0,94,0.00,,,0.05,WeatherCatV1.21B27,2013-10-15 17:40:00,
2013-10-15 12:45:00,46.8,45.2,29.81,NW,316,5.0,9.0,94,0.00,,,0.05,WeatherCatV1.21B27,2013-10-15 17:45:00,
2013-10-15 12:50:00,46.9,45.3,29.81,WNW,295,4.0,11.0,94,0.00,,,0.05,WeatherCatV1.21B27,2013-10-15 17:50:00,
2013-10-15 12:55:00,46.8,44.9,29.81,North,10,4.0,10.0,93,0.00,,,0.05,WeatherCatV1.21B27,2013-10-15 17:55:00,
2013-10-15 13:00:00,46.8,45.2,29.81,WNW,287,7.0,8.0,94,0.00,,,0.05,WeatherCatV1.21B27,2013-10-15 18:00:00,
2013-10-15 13:05:00,46.7,44.8,29.81,NW,305,4.0,10.0,93,0.00,,,0.05,WeatherCatV1.21B27,2013-10-15 18:05:00,
2013-10-15 13:10:00,46.6,44.7,29.82,NW,324,6.0,9.0,93,0.00,,,0.05,WeatherCatV1.21B27,2013-10-15 18:10:00,
2013-10-15 13:15:00,46.5,44.6,29.82,WNW,284,5.0,14.0,93,0.00,,,0.05,WeatherCatV1.21B27,2013-10-15 18:15:00,
2013-10-15 13:20:00,46.4,44.5,29.82,WNW,289,4.0,11.0,93,0.00,,,0.05,WeatherCatV1.21B27,2013-10-15 18:20:00,
2013-10-15 13:25:00,46.3,44.4,29.82,NNW,344,4.0,11.0,93,0.00,,,0.05,WeatherCatV1.21B27,2013-10-15 18:25:00,
2013-10-15 13:30:00,46.1,44.2,29.82,NW,320,10.0,10.0,93,0.00,,,0.06,WeatherCatV1.21B27,2013-10-15 18:30:00,
2013-10-15 13:35:00,46.1,44.2,29.82,WNW,303,4.0,10.0,93,0.00,,,0.06,WeatherCatV1.21B27,2013-10-15 18:35:00,
2013-10-15 13:40:00,46.0,44.1,29.83,NW,324,3.0,8.0,93,0.00,,,0.06,WeatherCatV1.21B27,2013-10-15 18:40:00,
2013-10-15 13:45:00,46.0,43.8,29.83,NW,315,6.0,11.0,92,0.00,,,0.06,WeatherCatV1.21B27,2013-10-15 18:45:00,
2013-10-15 13:50:00,46.1,43.9,29.83,WNW,293,1.0,8.0,92,0.00,,,0.06,WeatherCatV1.21B27,2013-10-15 18:50:00,
2013-10-15 13:55:00,46.2,44.0,29.83,NNW,341,4.0,10.0,92,0.00,,,0.06,WeatherCatV1.21B27,2013-10-15 18:55:00,
2013-10-15 14:00:00,46.2,43.7,29.83,NW,305,7.0,13.0,91,0.00,,,0.06,WeatherCatV1.21B27,2013-10-15 19:00:00,
2013-10-15 14:05:00,46.3,44.1,29.83,West,260,12.0,12.0,92,0.00,,,0.06,WeatherCatV1.21B27,2013-10-15 19:05:00,
2013-10-15 14:10:00,46.3,44.1,29.83,NW,309,6.0,9.0,92,0.00,,,0.06,WeatherCatV1.21B27,2013-10-15 19:10:00,
2013-10-15 14:15:00,46.3,43.8,29.83,WNW,283,13.0,13.0,91,0.00,,,0.06,WeatherCatV1.21B27,2013-10-15 19:15:00,
2013-10-15 14:20:00,46.2,43.4,29.83,NW,321,7.0,9.0,90,0.00,,,0.06,WeatherCatV1.21B27,2013-10-15 19:20:00,
2013-10-15 14:25:00,46.2,43.7,29.84,WNW,292,7.0,7.0,91,0.00,,,0.06,WeatherCatV1.21B27,2013-10-15 19:25:00,
2013-10-15 14:30:00,46.1,43.6,29.84,WNW,299,3.0,7.0,91,0.00,,,0.06,WeatherCatV1.21B27,2013-10-15 19:30:00,
2013-10-15 14:35:00,46.1,43.3,29.84,NW,316,1.0,8.0,90,0.00,,,0.06,WeatherCatV1.21B27,2013-10-15 19:35:00,
2013-10-15 14:40:00,46.0,43.2,29.85,WNW,289,4.0,13.0,90,0.00,,,0.06,WeatherCatV1.21B27,2013-10-15 19:40:00,
2013-10-15 14:45:00,46.0,43.2,29.85,WNW,284,6.0,11.0,90,0.00,,,0.06,WeatherCatV1.21B27,2013-10-15 19:45:00,
2013-10-15 14:50:00,46.0,43.5,29.85,North,5,7.0,7.0,91,0.00,,,0.06,WeatherCatV1.21B27,2013-10-15 19:50:00,
2013-10-15 14:55:00,46.0,43.5,29.85,WNW,303,2.0,7.0,91,0.00,,,0.06,WeatherCatV1.21B27,2013-10-15 19:55:00,
2013-10-15 15:00:00,45.9,43.4,29.85,NNW,329,5.0,8.0,91,0.00,,,0.06,WeatherCatV1.21B27,2013-10-15 20:00:00,
2013-10-15 15:05:00,45.8,43.3,29.86,WNW,289,2.0,6.0,91,0.00,,,0.06,WeatherCatV1.21B27,2013-10-15 20:05:00,
2013-10-15 15:10:00,45.7,43.2,29.86,NNE,22,6.0,10.0,91,0.00,,,0.06,WeatherCatV1.21B27,2013-10-15 20:10:00,
2013-10-15 15:15:00,45.6,43.1,29.86,NNW,338,4.0,10.0,91,0.00,,,0.06,WeatherCatV1.21B27,2013-10-15 20:15:00,
2013-10-15 15:20:00,45.6,43.1,29.87,WNW,291,4.0,7.0,91,0.00,,,0.06,WeatherCatV1.21B27,2013-10-15 20:20:00,
2013-10-15 15:25:00,45.5,43.0,29.87,West,278,8.0,8.0,91,0.00,,,0.06,WeatherCatV1.21B27,2013-10-15 20:25:00,
2013-10-15 15:30:00,45.4,42.9,29.87,West,269,4.0,7.0,91,0.00,,,0.06,WeatherCatV1.21B27,2013-10-15 20:30:00,
2013-10-15 15:35:00,45.4,42.9,29.87,WNW,299,5.0,11.0,91,0.00,,,0.06,WeatherCatV1.21B27,2013-10-15 20:35:00,
2013-10-15 15:40:00,45.4,42.9,29.87,NW,311,6.0,6.0,91,0.00,,,0.06,WeatherCatV1.21B27,2013-10-15 20:40:00,
2013-10-15 15:45:00,45.4,42.9,29.87,WNW,301,4.0,10.0,91,0.00,,,0.06,WeatherCatV1.21B27,2013-10-15 20:45:00,
2013-10-15 15:50:00,45.4,42.6,29.87,NW,314,5.0,11.0,90,0.00,,,0.06,WeatherCatV1.21B27,2013-10-15 20:50:00,
2013-10-15 15:55:00,45.4,42.6,29.88,WNW,295,2.0,13.0,90,0.00,,,0.06,WeatherCatV1.21B27,2013-10-15 20:55:00,
2013-10-15 16:00:00,45.4,42.6,29.88,WNW,295,7.0,8.0,90,0.00,,,0.06,WeatherCatV1.21B27,2013-10-15 21:00:00,
2013-10-15 16:05:00,45.4,42.6,29.88,NE,37,6.0,9.0,90,0.00,,,0.06,WeatherCatV1.21B27,2013-10-15 21:05:00,
2013-10-15 16:10:00,45.5,42.2,29.88,NNW,344,5.0,11.0,88,0.00,,,0.06,WeatherCatV1.21B27,2013-10-15 21:10:00,
2013-10-15 16:15:00,45.6,42.2,29.88,NW,316,3.0,10.0,88,0.00,,,0.06,WeatherCatV1.21B27,2013-10-15 21:15:00,
2013-10-15 16:20:00,45.5,42.2,29.88,WNW,299,5.0,13.0,88,0.00,,,0.06,WeatherCatV1.21B27,2013-10-15 21:20:00,
2013-10-15 16:25:00,45.3,42.2,29.88,NNW,335,4.0,11.0,89,0.00,,,0.06,WeatherCatV1.21B27,2013-10-15 21:25:00,
2013-10-15 16:30:00,45.2,42.2,29.88,NW,314,2.0,10.0,89,0.00,,,0.06,WeatherCatV1.21B27,2013-10-15 21:30:00,
2013-10-15 16:35:00,45.2,42.4,29.88,NW,307,5.0,6.0,90,0.00,,,0.06,WeatherCatV1.21B27,2013-10-15 21:35:00,
2013-10-15 16:40:00,45.1,42.3,29.88,West,276,3.0,9.0,90,0.00,,,0.06,WeatherCatV1.21B27,2013-10-15 21:40:00,
2013-10-15 16:45:00,45.1,42.6,29.88,North,354,5.0,9.0,91,0.00,,,0.06,WeatherCatV1.21B27,2013-10-15 21:45:00,
2013-10-15 16:50:00,44.9,42.4,29.88,NW,306,3.0,12.0,91,0.00,,,0.06,WeatherCatV1.21B27,2013-10-15 21:50:00,
2013-10-15 16:55:00,44.7,42.5,29.89,North,351,2.0,10.0,92,0.00,,,0.06,WeatherCatV1.21B27,2013-10-15 21:55:00,
2013-10-15 17:00:00,44.7,42.5,29.89,WNW,301,5.0,9.0,92,0.00,,,0.06,WeatherCatV1.21B27,2013-10-15 22:00:00,
2013-10-15 17:05:00,44.7,42.5,29.90,West,270,6.0,14.0,92,0.00,,,0.06,WeatherCatV1.21B27,2013-10-15 22:05:00,
2013-10-15 17:10:00,44.5,42.0,29.89,West,276,6.0,9.0,91,0.00,,,0.06,WeatherCatV1.21B27,2013-10-15 22:10:00,
2013-10-15 17:15:00,44.5,42.0,29.90,WNW,301,8.0,9.0,91,0.00,,,0.06,WeatherCatV1.21B27,2013-10-15 22:15:00,
2013-10-15 17:20:00,44.7,42.2,29.90,WNW,303,5.0,5.0,91,0.00,,,0.06,WeatherCatV1.21B27,2013-10-15 22:20:00,
2013-10-15 17:25:00,44.7,42.2,29.90,WNW,285,4.0,5.0,91,0.00,,,0.06,WeatherCatV1.21B27,2013-10-15 22:25:00,
2013-10-15 17:30:00,44.7,42.5,29.90,WNW,284,5.0,5.0,92,0.00,,,0.06,WeatherCatV1.21B27,2013-10-15 22:30:00,
2013-10-15 17:35:00,44.5,42.3,29.90,WNW,300,4.0,9.0,92,0.00,,,0.06,WeatherCatV1.21B27,2013-10-15 22:35:00,
2013-10-15 17:40:00,44.3,42.4,29.90,North,351,7.0,7.0,93,0.00,,,0.06,WeatherCatV1.21B27,2013-10-15 22:40:00,
2013-10-15 17:45:00,44.1,42.2,29.91,NNE,20,3.0,10.0,93,0.00,,,0.06,WeatherCatV1.21B27,2013-10-15 22:45:00,
2013-10-15 17:50:00,43.9,42.3,29.91,NW,304,4.0,5.0,94,0.00,,,0.06,WeatherCatV1.21B27,2013-10-15 22:50:00,
2013-10-15 17:55:00,43.8,42.2,29.91,NW,311,4.0,5.0,94,0.00,,,0.06,WeatherCatV1.21B27,2013-10-15 22:55:00,
2013-10-15 18:00:00,43.9,42.0,29.91,WNW,289,6.0,8.0,93,0.00,,,0.06,WeatherCatV1.21B27,2013-10-15 23:00:00,
2013-10-15 18:05:00,43.9,41.4,29.92,WNW,293,5.0,9.0,91,0.00,,,0.06,WeatherCatV1.21B27,2013-10-15 23:05:00,
2013-10-15 18:10:00,44.1,41.4,29.92,NW,311,3.0,9.0,90,0.00,,,0.06,WeatherCatV1.21B27,2013-10-15 23:10:00,
2013-10-15 18:15:00,44.1,41.4,29.92,WNW,302,4.0,7.0,90,0.00,,,0.06,WeatherCatV1.21B27,2013-10-15 23:15:00,
2013-10-15 18:20:00,44.2,41.5,29.92,NW,316,3.0,5.0,90,0.00,,,0.06,WeatherCatV1.21B27,2013-10-15 23:20:00,
2013-10-15 18:25:00,44.2,41.2,29.92,NW,316,4.0,11.0,89,0.00,,,0.06,WeatherCatV1.21B27,2013-10-15 23:25:00,
2013-10-15 18:30:00,44.2,41.2,29.93,NW,323,4.0,10.0,89,0.00,,,0.06,WeatherCatV1.21B27,2013-10-15 23:30:00,
2013-10-15 18:35:00,44.2,40.9,29.93,NW,326,5.0,9.0,88,0.00,,,0.06,WeatherCatV1.21B27,2013-10-15 23:35:00,
2013-10-15 18:40:00,44.1,41.1,29.93,NW,314,6.0,10.0,89,0.00,,,0.06,WeatherCatV1.21B27,2013-10-15 23:40:00,
2013-10-15 18:45:00,44.1,41.1,29.93,NNW,343,0.0,6.0,89,0.00,,,0.06,WeatherCatV1.21B27,2013-10-15 23:45:00,
2013-10-15 18:50:00,44.1,41.1,29.93,North,0,5.0,7.0,89,0.00,,,0.06,WeatherCatV1.21B27,2013-10-15 23:50:00,
2013-10-15 18:55:00,44.0,41.0,29.94,NW,311,3.0,8.0,89,0.00,,,0.06,WeatherCatV1.21B27,2013-10-15 23:55:00,
2013-10-15 19:00:00,44.0,41.0,29.94,WNW,295,3.0,7.0,89,0.00,,,0.06,WeatherCatV1.21B27,2013-10-16 00:00:00,
2013-10-15 19:05:00,43.9,40.9,29.94,NNW,336,4.0,8.0,89,0.00,,,0.06,WeatherCatV1.21B27,2013-10-16 00:05:00,
2013-10-15 19:10:00,43.8,40.8,29.94,NW,309,3.0,7.0,89,0.00,,,0.06,WeatherCatV1.21B27,2013-10-16 00:10:00,
2013-10-15 19:15:00,43.7,40.7,29.95,NW,310,3.0,8.0,89,0.00,,,0.06,WeatherCatV1.21B27,2013-10-16 00:15:00,
2013-10-15 19:20:00,43.7,40.4,29.95,West,267,6.0,9.0,88,0.00,,,0.06,WeatherCatV1.21B27,2013-10-16 00:20:00,
2013-10-15 19:25:00,43.7,40.4,29.95,NW,322,4.0,6.0,88,0.00,,,0.06,WeatherCatV1.21B27,2013-10-16 00:25:00,
2013-10-15 19:30:00,43.6,40.0,29.96,WNW,301,3.0,13.0,87,0.00,,,0.06,WeatherCatV1.21B27,2013-10-16 00:30:00,
2013-10-15 19:35:00,43.6,40.0,29.96,WNW,293,4.0,8.0,87,0.00,,,0.06,WeatherCatV1.21B27,2013-10-16 00:35:00,
2013-10-15 19:40:00,43.5,40.2,29.96,WNW,297,5.0,9.0,88,0.00,,,0.06,WeatherCatV1.21B27,2013-10-16 00:40:00,
2013-10-15 19:45:00,43.4,40.4,29.96,WNW,297,0.0,6.0,89,0.00,,,0.06,WeatherCatV1.21B27,2013-10-16 00:45:00,
2013-10-15 19:50:00,43.3,40.6,29.97,NNW,341,2.0,7.0,90,0.00,,,0.06,WeatherCatV1.21B27,2013-10-16 00:50:00,
2013-10-15 19:55:00,43.2,40.5,29.97,WNW,299,3.0,5.0,90,0.00,,,0.06,WeatherCatV1.21B27,2013-10-16 00:55:00,
2013-10-15 20:00:00,43.2,40.8,29.97,WNW,289,1.0,4.0,91,0.00,,,0.06,WeatherCatV1.21B27,2013-10-16 01:00:00,
2013-10-15 20:05:00,43.1,40.7,29.97,NW,316,3.0,10.0,91,0.00,,,0.06,WeatherCatV1.21B27,2013-10-16 01:05:00,
2013-10-15 20:10:00,43.0,40.6,29.97,West,281,4.0,7.0,91,0.00,,,0.06,WeatherCatV1.21B27,2013-10-16 01:10:00,
2013-10-15 20:15:00,42.9,40.7,29.97,NNW,331,3.0,5.0,92,0.00,,,0.06,WeatherCatV1.21B27,2013-10-16 01:15:00,
2013-10-15 20:20:00,42.9,40.7,29.97,NW,313,3.0,9.0,92,0.00,,,0.06,WeatherCatV1.21B27,2013-10-16 01:20:00,
2013-10-15 20:25:00,42.8,40.6,29.97,WNW,287,2.0,6.0,92,0.00,,,0.06,WeatherCatV1.21B27,2013-10-16 01:25:00,
2013-10-15 20:30:00,42.8,40.6,29.97,WNW,289,3.0,5.0,92,0.00,,,0.06,WeatherCatV1.21B27,2013-10-16 01:30:00,
2013-10-15 20:35:00,42.8,40.6,29.98,West,278,2.0,8.0,92,0.00,,,0.06,WeatherCatV1.21B27,2013-10-16 01:35:00,
2013-10-15 20:40:00,42.7,40.5,29.98,WNW,301,3.0,9.0,92,0.00,,,0.06,WeatherCatV1.21B27,2013-10-16 01:40:00,
2013-10-15 20:45:00,42.7,40.8,29.98,North,0,4.0,7.0,93,0.00,,,0.06,WeatherCatV1.21B27,2013-10-16 01:45:00,
2013-10-15 20:50:00,42.7,40.8,29.98,NW,326,3.0,5.0,93,0.00,,,0.06,WeatherCatV1.21B27,2013-10-16 01:50:00,
2013-10-15 20:55:00,42.8,40.6,29.98,NNW,332,3.0,6.0,92,0.00,,,0.06,WeatherCatV1.21B27,2013-10-16 01:55:00,
2013-10-15 21:00:00,42.9,40.7,29.98,NW,311,3.0,7.0,92,0.00,,,0.06,WeatherCatV1.21B27,2013-10-16 02:00:00,
2013-10-15 21:05:00,42.9,40.7,29.98,West,277,5.0,8.0,92,0.00,,,0.06,WeatherCatV1.21B27,2013-10-16 02:05:00,
2013-10-15 21:10:00,43.0,40.8,29.99,WNW,297,6.0,13.0,92,0.00,,,0.06,WeatherCatV1.21B27,2013-10-16 02:10:00,
2013-10-15 21:15:00,43.1,40.7,29.99,NW,305,4.0,9.0,91,0.00,,,0.06,WeatherCatV1.21B27,2013-10-16 02:15:00,
2013-10-15 21:20:00,43.1,40.9,29.99,WNW,302,6.0,6.0,92,0.00,,,0.06,WeatherCatV1.21B27,2013-10-16 02:20:00,
2013-10-15 21:25:00,43.1,40.9,29.99,WNW,283,0.0,6.0,92,0.00,,,0.06,WeatherCatV1.21B27,2013-10-16 02:25:00,
2013-10-15 21:30:00,43.1,40.9,29.99,WNW,289,2.0,6.0,92,0.00,,,0.06,WeatherCatV1.21B27,2013-10-16 02:30:00,
2013-10-15 21:35:00,43.0,40.8,29.99,NNW,328,4.0,8.0,92,0.00,,,0.06,WeatherCatV1.21B27,2013-10-16 02:35:00,
2013-10-15 21:40:00,43.0,40.8,29.99,WNW,300,4.0,9.0,92,0.00,,,0.06,WeatherCatV1.21B27,2013-10-16 02:40:00,
2013-10-15 21:45:00,43.0,40.8,29.99,WNW,285,4.0,7.0,92,0.00,,,0.06,WeatherCatV1.21B27,2013-10-16 02:45:00,
2013-10-15 21:50:00,43.0,40.8,29.99,NW,312,4.0,6.0,92,0.00,,,0.06,WeatherCatV1.21B27,2013-10-16 02:50:00,
2013-10-15 21:55:00,43.1,40.9,29.99,WNW,302,4.0,5.0,92,0.00,,,0.06,WeatherCatV1.21B27,2013-10-16 02:55:00,
2013-10-15 22:00:00,43.2,41.0,29.99,WNW,303,1.0,4.0,92,0.00,,,0.06,WeatherCatV1.21B27,2013-10-16 03:00:00,
2013-10-15 22:05:00,43.2,41.0,29.99,West,274,2.0,9.0,92,0.00,,,0.06,WeatherCatV1.21B27,2013-10-16 03:05:00,
2013-10-15 22:10:00,43.3,40.8,29.99,West,259,4.0,6.0,91,0.00,,,0.06,WeatherCatV1.21B27,2013-10-16 03:10:00,
2013-10-15 22:15:00,43.4,41.0,30.00,WNW,291,7.0,9.0,91,0.00,,,0.06,WeatherCatV1.21B27,2013-10-16 03:15:00,
2013-10-15 22:20:00,43.4,41.0,30.00,NW,309,1.0,5.0,91,0.00,,,0.06,WeatherCatV1.21B27,2013-10-16 03:20:00,
2013-10-15 22:25:00,43.4,41.0,30.00,West,276,1.0,7.0,91,0.00,,,0.06,WeatherCatV1.21B27,2013-10-16 03:25:00,
2013-10-15 22:30:00,43.3,40.8,30.00,West,272,1.0,6.0,91,0.00,,,0.06,WeatherCatV1.21B27,2013-10-16 03:30:00,
2013-10-15 22:35:00,43.3,40.8,30.00,WNW,284,2.0,9.0,91,0.00,,,0.06,WeatherCatV1.21B27,2013-10-16 03:35:00,
2013-10-15 22:40:00,43.2,40.8,30.00,NW,324,4.0,5.0,91,0.00,,,0.06,WeatherCatV1.21B27,2013-10-16 03:40:00,
2013-10-15 22:45:00,43.2,40.8,30.00,NE,46,3.0,7.0,91,0.00,,,0.06,WeatherCatV1.21B27,2013-10-16 03:45:00,
2013-10-15 22:50:00,43.2,40.8,30.00,West,279,3.0,8.0,91,0.00,,,0.06,WeatherCatV1.21B27,2013-10-16 03:50:00,
2013-10-15 22:55:00,43.3,40.8,30.00,NW,326,3.0,4.0,91,0.00,,,0.06,WeatherCatV1.21B27,2013-10-16 03:55:00,
2013-10-15 23:00:00,43.2,40.8,30.00,WNW,297,4.0,5.0,91,0.00,,,0.06,WeatherCatV1.21B27,2013-10-16 04:00:00,
2013-10-15 23:01:00,43.2,40.8,30.00,West,276,2.0,5.0,91,0.00,,,0.06,WeatherCatV1.21B27,2013-10-16 04:01:00,
2013-10-15 23:02:00,43.3,40.8,30.00,West,277,3.0,5.0,91,0.00,,,0.06,WeatherCatV1.21B27,2013-10-16 04:02:00,
2013-10-15 23:07:00,43.3,40.8,30.00,NNW,334,1.0,2.0,91,0.00,,,0.06,WeatherCatV1.21B27,2013-10-16 04:07:00,
2013-10-15 23:12:00,43.2,40.8,29.99,NW,305,1.0,5.0,91,0.00,,,0.06,WeatherCatV1.21B27,2013-10-16 04:12:00,
2013-10-15 23:17:00,43.2,40.8,29.99,NNW,340,1.0,5.0,91,0.00,,,0.06,WeatherCatV1.21B27,2013-10-16 04:17:00,
2013-10-15 23:22:00,43.2,40.8,30.00,West,276,1.0,3.0,91,0.00,,,0.06,WeatherCatV1.21B27,2013-10-16 04:22:00,
2013-10-15 23:27:00,43.2,40.8,29.99,NW,310,5.0,5.0,91,0.00,,,0.06,WeatherCatV1.21B27,2013-10-16 04:27:00,
2013-10-15 23:32:00,43.3,40.8,29.99,WNW,295,3.0,6.0,91,0.00,,,0.06,WeatherCatV1.21B27,2013-10-16 04:32:00,
2013-10-15 23:37:00,43.2,40.8,29.99,WNW,282,4.0,4.0,91,0.00,,,0.06,WeatherCatV1.21B27,2013-10-16 04:37:00,
2013-10-15 23:42:00,43.2,40.8,29.99,NNW,333,1.0,5.0,91,0.00,,,0.06,WeatherCatV1.21B27,2013-10-16 04:42:00,
2013-10-15 23:47:00,43.2,40.8,29.99,WNW,300,2.0,6.0,91,0.00,,,0.06,WeatherCatV1.21B27,2013-10-16 04:47:00,
2013-10-15 23:52:00,43.2,41.0,30.00,WNW,299,2.0,5.0,92,0.00,,,0.06,WeatherCatV1.21B27,2013-10-16 04:52:00,
2013-10-15 23:57:00,43.2,41.0,30.00,NW,316,5.0,7.0,92,0.00,,,0.06,WeatherCatV1.21B27,2013-10-16 04:57:00,